createdAt,value
2018-08-09T00:00:00.692Z,12.2
2018-08-09T00:05:00.541Z,12.0
2018-08-09T00:10:00.570Z,11.4
2018-08-09T00:15:00.546Z,11.2
2018-08-09T00:20:00.543Z,12.2
2018-08-09T00:25:00.537Z,12.3
2018-08-09T00:30:00.611Z,12.4
2018-08-09T00:35:00.545Z,12.9
2018-08-09T00:40:00.553Z,12.8
2018-08-09T00:45:00.549Z,13.1
2018-08-09T00:50:00.667Z,14.0
2018-08-09T00:55:00.562Z,14.7
2018-08-09T01:00:00.627Z,15.0
2018-08-09T01:05:00.558Z,15.4
2018-08-09T01:10:00.584Z,15.2
2018-08-09T01:15:00.558Z,14.9
2018-08-09T01:20:00.585Z,15.4
2018-08-09T01:25:00.611Z,14.8
2018-08-09T01:30:00.742Z,15.1
2018-08-09T01:35:00.605Z,15.0
2018-08-09T01:40:00.595Z,15.7
2018-08-09T01:45:00.597Z,15.5
2018-08-09T01:50:00.692Z,16.5
2018-08-09T01:55:00.567Z,16.8
2018-08-09T02:00:00.569Z,17.6
2018-08-09T02:05:00.669Z,18.6
2018-08-09T02:10:00.645Z,18.8
2018-08-09T02:15:00.568Z,19.3
2018-08-09T02:20:00.571Z,19.0
2018-08-09T02:30:00.636Z,18.4
2018-08-09T02:35:00.568Z,18.0
2018-08-09T02:40:00.575Z,17.3
2018-08-09T02:45:00.576Z,17.4
2018-08-09T02:50:00.578Z,17.6
2018-08-09T02:55:00.588Z,17.0
2018-08-09T03:00:00.579Z,17.3
2018-08-09T03:05:00.578Z,17.2
2018-08-09T03:10:00.590Z,17.0
2018-08-09T03:15:00.583Z,16.8
2018-08-09T03:20:00.583Z,17.0
2018-08-09T03:25:00.595Z,16.3
2018-08-09T03:30:00.722Z,16.0
2018-08-09T03:35:00.628Z,16.4
2018-08-09T03:40:00.597Z,16.5
2018-08-09T03:45:00.591Z,16.5
2018-08-09T03:50:00.592Z,17.5
2018-08-09T03:55:00.603Z,17.9
2018-08-09T04:00:00.729Z,17.4
2018-08-09T04:05:00.607Z,16.8
2018-08-09T04:10:00.602Z,16.6
2018-08-09T04:15:00.598Z,15.4
2018-08-09T04:20:00.681Z,14.3
2018-08-09T04:25:00.609Z,15.0
2018-08-09T04:30:00.602Z,15.0
2018-08-09T04:35:00.609Z,14.7
2018-08-09T04:40:00.675Z,15.4
2018-08-09T04:45:00.613Z,16.0
2018-08-09T04:50:00.683Z,15.4
2018-08-09T04:55:00.614Z,15.1
2018-08-09T05:00:00.615Z,16.1
2018-08-09T05:05:00.622Z,16.4
2018-08-09T05:10:00.755Z,17.0
2018-08-09T05:15:00.617Z,17.1
2018-08-09T05:20:00.688Z,17.2
2018-08-09T05:25:00.644Z,17.1
2018-08-09T05:30:00.726Z,16.1
2018-08-09T05:35:00.633Z,15.3
2018-08-09T05:40:00.628Z,14.2
2018-08-09T05:45:00.633Z,13.0
2018-08-09T05:50:00.636Z,12.2
2018-08-09T05:55:00.639Z,12.0
2018-08-09T06:00:00.629Z,11.6
2018-08-09T06:05:00.635Z,11.8
2018-08-09T06:10:00.770Z,12.4
2018-08-09T06:15:00.638Z,12.1
2018-08-09T06:20:00.642Z,12.0
2018-08-09T06:25:00.672Z,12.2
2018-08-09T06:30:00.826Z,12.5
2018-08-09T06:35:00.684Z,12.3
2018-08-09T06:40:00.741Z,12.0
2018-08-09T06:45:00.664Z,11.5
2018-08-09T06:50:00.669Z,11.0
2018-08-09T06:55:00.679Z,9.6
2018-08-09T07:00:00.679Z,8.5
2018-08-09T07:05:00.682Z,7.7
2018-08-09T07:10:00.808Z,7.4
2018-08-09T07:15:00.686Z,6.3
2018-08-09T07:20:00.765Z,6.6
2018-08-09T07:25:00.708Z,7.0
2018-08-09T07:30:00.706Z,6.6
2018-08-09T07:35:00.704Z,6.9
2018-08-09T07:40:00.837Z,7.4
2018-08-09T07:45:00.700Z,6.8
2018-08-09T07:50:00.788Z,6.2
2018-08-09T07:55:00.700Z,6.0
2018-08-09T08:00:00.764Z,5.8
2018-08-09T08:05:00.641Z,5.4
2018-08-09T08:10:00.739Z,5.3
2018-08-09T08:15:00.727Z,5.3
2018-08-09T08:20:00.804Z,5.4
2018-08-09T08:25:00.672Z,5.2
2018-08-09T08:30:00.760Z,5.4
2018-08-09T08:35:00.680Z,5.6
2018-08-09T08:40:00.742Z,5.7
2018-08-09T08:45:00.682Z,5.7
2018-08-09T08:50:00.814Z,5.6
2018-08-09T08:55:00.686Z,5.3
2018-08-09T09:00:00.686Z,6.0
2018-08-09T09:05:00.691Z,6.1
2018-08-09T09:10:00.747Z,6.2
2018-08-09T09:15:00.690Z,6.5
2018-08-09T09:20:00.695Z,7.2
2018-08-09T09:25:00.692Z,7.3
2018-08-09T09:30:00.766Z,8.0
2018-08-09T09:35:00.738Z,8.6
2018-08-09T09:40:00.764Z,9.1
2018-08-09T09:45:00.708Z,9.3
2018-08-09T09:50:00.700Z,9.5
2018-08-09T10:00:00.704Z,10.2
2018-08-09T10:10:00.770Z,11.1
2018-08-09T10:15:00.708Z,11.4
2018-08-09T10:20:00.708Z,12.0
2018-08-09T10:25:00.708Z,11.2
2018-08-09T10:30:00.852Z,11.5
2018-08-09T10:35:00.714Z,11.2
2018-08-09T10:40:00.712Z,11.3
2018-08-09T10:45:00.716Z,11.2
2018-08-09T10:50:00.791Z,11.5
2018-08-09T10:55:00.718Z,11.7
2018-08-09T11:00:00.723Z,12.1
2018-08-09T11:05:00.723Z,13.0
2018-08-09T11:10:00.725Z,12.5
2018-08-09T11:15:00.774Z,11.9
2018-08-09T11:20:00.788Z,11.8
2018-08-09T11:25:00.744Z,11.0
2018-08-09T11:30:00.727Z,10.3
2018-08-09T11:40:00.737Z,11.3
2018-08-09T11:45:00.736Z,12.5
2018-08-09T11:50:00.810Z,13.6
2018-08-09T11:55:00.765Z,13.9
2018-08-09T12:00:00.769Z,14.5
2018-08-09T12:05:00.763Z,14.9
2018-08-09T12:10:00.836Z,14.8
2018-08-09T12:15:00.834Z,14.8
2018-08-09T12:20:00.837Z,15.1
2018-08-09T12:25:00.774Z,15.6
2018-08-09T12:30:00.912Z,15.1
2018-08-09T12:35:00.755Z,14.2
2018-08-09T12:40:00.878Z,13.9
2018-08-09T12:45:00.752Z,13.6
2018-08-09T12:50:00.816Z,13.3
2018-08-09T13:00:00.934Z,14.2
2018-08-09T13:05:00.755Z,13.6
2018-08-09T13:15:00.754Z,13.2
2018-08-09T13:20:00.893Z,13.4
2018-08-09T13:25:00.763Z,13.1
2018-08-09T13:30:00.836Z,14.0
2018-08-09T13:35:00.739Z,14.2
2018-08-09T13:40:00.774Z,15.3
2018-08-09T13:45:00.790Z,16.3
2018-08-09T13:50:00.771Z,16.6
2018-08-09T13:55:00.741Z,17.1
2018-08-09T14:00:00.829Z,18.5
2018-08-09T14:05:00.772Z,18.2
2018-08-09T14:10:00.768Z,18.7
2018-08-09T14:15:00.773Z,18.8
2018-08-09T14:20:00.904Z,19.0
2018-08-09T14:25:00.873Z,18.2
2018-08-09T14:30:00.838Z,17.6
2018-08-09T14:35:00.801Z,17.1
2018-08-09T14:40:00.808Z,17.6
2018-08-09T14:45:00.804Z,17.8
2018-08-09T14:50:00.846Z,19.4
2018-08-09T14:55:00.782Z,21.3
2018-08-09T15:00:00.883Z,23.4
2018-08-09T15:05:00.824Z,24.8
2018-08-09T15:10:00.890Z,25.0
2018-08-09T15:15:00.829Z,24.2
2018-08-09T15:20:00.958Z,24.3
2018-08-09T15:25:00.836Z,23.0
2018-08-09T15:30:00.897Z,22.2
2018-08-09T15:35:00.822Z,21.8
2018-08-09T15:40:00.885Z,21.5
2018-08-09T15:45:00.801Z,20.9
2018-08-09T15:50:00.867Z,20.7
2018-08-09T15:55:00.794Z,19.5
2018-08-09T16:00:00.932Z,19.6
2018-08-09T16:05:00.832Z,19.1
2018-08-09T16:10:00.922Z,19.0
2018-08-09T16:15:00.805Z,18.2
2018-08-09T16:20:00.867Z,18.7
2018-08-09T16:30:00.861Z,19.0
2018-08-09T16:35:00.807Z,18.9
2018-08-09T16:45:00.874Z,18.7
2018-08-09T16:50:00.875Z,17.6
2018-08-09T16:55:00.809Z,16.5
2018-08-09T17:00:00.876Z,15.1
2018-08-09T17:05:00.817Z,14.0
2018-08-09T17:10:00.938Z,12.7
2018-08-09T17:15:00.818Z,12.4
2018-08-09T17:20:00.881Z,12.6
2018-08-09T17:25:00.816Z,13.0
2018-08-09T17:30:00.881Z,13.5
2018-08-09T17:35:00.820Z,14.4
2018-08-09T17:40:00.949Z,15.2
2018-08-09T17:45:00.820Z,15.7
2018-08-09T17:50:00.823Z,16.6
2018-08-09T17:55:00.823Z,17.4
2018-08-09T18:00:00.823Z,17.8
2018-08-09T18:05:00.844Z,18.6
2018-08-09T18:10:00.957Z,18.8
2018-08-09T18:15:00.828Z,18.7
2018-08-09T18:20:00.968Z,19.0
2018-08-09T18:25:00.844Z,19.4
2018-08-09T18:30:00.904Z,19.4
2018-08-09T18:35:00.831Z,20.2
2018-08-09T18:40:00.905Z,21.4
2018-08-09T18:45:00.840Z,19.7
2018-08-09T18:50:00.971Z,16.7
2018-08-09T18:55:00.843Z,13.4
2018-08-09T19:00:00.846Z,10.3
2018-08-09T19:05:00.866Z,6.3
2018-08-09T19:10:00.913Z,4.9
2018-08-09T19:15:00.870Z,5.0
2018-08-09T19:20:00.935Z,5.2
2018-08-09T19:25:00.819Z,5.0
2018-08-09T19:30:00.920Z,4.8
2018-08-09T19:35:00.853Z,5.2
2018-08-09T19:40:00.920Z,5.1
2018-08-09T19:45:00.858Z,5.2
2018-08-09T19:50:00.979Z,5.1
2018-08-09T19:55:00.859Z,6.4
2018-08-09T20:00:00.956Z,7.4
2018-08-09T20:05:00.856Z,7.8
2018-08-09T20:10:00.927Z,8.6
2018-08-09T20:15:00.861Z,9.0
2018-08-09T20:25:00.960Z,8.5
2018-08-09T20:30:00.996Z,9.1
2018-08-09T20:35:00.867Z,9.2
2018-08-09T20:40:00.935Z,9.5
2018-08-09T20:45:00.873Z,9.8
2018-08-09T20:50:00.912Z,9.7
2018-08-09T20:55:00.884Z,9.1
2018-08-09T21:00:00.998Z,9.1
2018-08-09T21:05:00.876Z,9.4
2018-08-09T21:10:00.878Z,9.0
2018-08-09T21:15:00.874Z,9.1
2018-08-09T21:20:00.947Z,9.5
2018-08-09T21:25:00.922Z,9.7
2018-08-09T21:30:00.985Z,10.2
2018-08-09T21:35:00.922Z,10.9
2018-08-09T21:40:00.914Z,12.0
2018-08-09T21:45:00.882Z,13.0
2018-08-09T21:50:00.955Z,13.9
2018-08-09T21:55:00.891Z,14.7
2018-08-09T22:00:00.960Z,14.8
2018-08-09T22:05:00.893Z,14.5
2018-08-09T22:10:00.896Z,14.7
2018-08-09T22:15:00.895Z,14.8
2018-08-09T22:20:00.966Z,15.3
2018-08-09T22:25:00.928Z,16.0
2018-08-09T22:30:00.967Z,17.0
2018-08-09T22:35:00.909Z,17.9
2018-08-09T22:40:01.034Z,18.1
2018-08-09T22:45:00.896Z,18.2
2018-08-09T22:50:00.975Z,19.3
2018-08-09T23:00:00.972Z,19.9
2018-08-09T23:05:00.903Z,20.5
2018-08-09T23:10:00.942Z,20.8
2018-08-09T23:15:00.903Z,20.7
2018-08-09T23:20:01.030Z,21.5
2018-08-09T23:25:00.912Z,20.6
2018-08-09T23:30:00.918Z,20.4
2018-08-09T23:35:00.950Z,20.8
2018-08-09T23:40:00.981Z,20.6
2018-08-09T23:45:00.920Z,20.8
2018-08-09T23:50:01.054Z,20.9
2018-08-09T23:55:00.917Z,21.6
